sensor_id;sensor_type;location;lat;lon;timestamp;P1;durP1;ratioP1;P2;durP2;ratioP2
18544;SDS011;9402;51.460;7.276;2022-07-22T00:00:17;5.67;;;4.50;;
18544;SDS011;9402;51.460;7.276;2022-07-22T00:02:21;13.03;;;5.00;;
18544;SDS011;9402;51.460;7.276;2022-07-22T00:04:23;11.73;;;6.37;;
18544;SDS011;9402;51.460;7.276;2022-07-22T00:06:26;7.80;;;6.60;;
18544;SDS011;9402;51.460;7.276;2022-07-22T00:08:28;10.43;;;7.03;;
18544;SDS011;9402;51.460;7.276;2022-07-22T00:10:30;13.83;;;7.37;;
18544;SDS011;9402;51.460;7.276;2022-07-22T00:12:33;10.20;;;6.27;;
18544;SDS011;9402;51.460;7.276;2022-07-22T00:14:36;8.80;;;5.53;;
18544;SDS011;9402;51.460;7.276;2022-07-22T00:16:38;7.00;;;4.60;;
18544;SDS011;9402;51.460;7.276;2022-07-22T00:18:42;5.73;;;4.80;;
18544;SDS011;9402;51.460;7.276;2022-07-22T00:20:44;6.63;;;4.40;;
18544;SDS011;9402;51.460;7.276;2022-07-22T00:22:47;4.93;;;4.10;;
18544;SDS011;9402;51.460;7.276;2022-07-22T00:24:49;3.60;;;2.50;;
18544;SDS011;9402;51.460;7.276;2022-07-22T00:26:52;3.47;;;2.70;;
18544;SDS011;9402;51.460;7.276;2022-07-22T00:28:54;3.20;;;2.47;;
18544;SDS011;9402;51.460;7.276;2022-07-22T00:30:56;5.30;;;2.70;;
18544;SDS011;9402;51.460;7.276;2022-07-22T00:32:59;2.27;;;1.93;;
18544;SDS011;9402;51.460;7.276;2022-07-22T00:35:02;4.87;;;2.37;;
18544;SDS011;9402;51.460;7.276;2022-07-22T00:37:06;3.10;;;2.77;;
18544;SDS011;9402;51.460;7.276;2022-07-22T00:39:08;5.37;;;2.10;;
18544;SDS011;9402;51.460;7.276;2022-07-22T00:41:10;9.43;;;3.50;;
18544;SDS011;9402;51.460;7.276;2022-07-22T00:43:13;3.67;;;2.63;;
18544;SDS011;9402;51.460;7.276;2022-07-22T00:45:15;7.10;;;4.17;;
18544;SDS011;9402;51.460;7.276;2022-07-22T00:47:17;9.33;;;4.57;;
18544;SDS011;9402;51.460;7.276;2022-07-22T00:49:20;4.10;;;3.70;;
18544;SDS011;9402;51.460;7.276;2022-07-22T00:51:24;7.53;;;5.40;;
18544;SDS011;9402;51.460;7.276;2022-07-22T00:53:27;7.30;;;3.83;;
18544;SDS011;9402;51.460;7.276;2022-07-22T00:55:29;6.53;;;4.30;;
18544;SDS011;9402;51.460;7.276;2022-07-22T00:57:31;5.77;;;4.40;;
18544;SDS011;9402;51.460;7.276;2022-07-22T00:59:34;7.30;;;4.80;;
18544;SDS011;9402;51.460;7.276;2022-07-22T01:01:36;5.93;;;4.43;;
18544;SDS011;9402;51.460;7.276;2022-07-22T01:03:39;5.13;;;3.93;;
18544;SDS011;9402;51.460;7.276;2022-07-22T01:05:41;9.53;;;5.73;;
18544;SDS011;9402;51.460;7.276;2022-07-22T01:07:45;4.47;;;3.90;;
18544;SDS011;9402;51.460;7.276;2022-07-22T01:09:47;8.60;;;4.90;;
18544;SDS011;9402;51.460;7.276;2022-07-22T01:11:49;7.47;;;4.57;;
18544;SDS011;9402;51.460;7.276;2022-07-22T01:13:52;6.03;;;3.80;;
18544;SDS011;9402;51.460;7.276;2022-07-22T01:15:55;4.73;;;3.93;;
18544;SDS011;9402;51.460;7.276;2022-07-22T01:17:58;6.30;;;3.40;;
18544;SDS011;9402;51.460;7.276;2022-07-22T01:20:02;9.43;;;4.87;;
18544;SDS011;9402;51.460;7.276;2022-07-22T01:22:05;5.20;;;4.30;;
18544;SDS011;9402;51.460;7.276;2022-07-22T01:24:08;6.07;;;4.07;;
18544;SDS011;9402;51.460;7.276;2022-07-22T01:26:10;7.87;;;3.80;;
18544;SDS011;9402;51.460;7.276;2022-07-22T01:28:13;8.63;;;3.73;;
18544;SDS011;9402;51.460;7.276;2022-07-22T01:30:15;4.93;;;3.63;;
18544;SDS011;9402;51.460;7.276;2022-07-22T01:32:18;5.37;;;3.80;;
18544;SDS011;9402;51.460;7.276;2022-07-22T01:34:20;5.23;;;4.10;;
18544;SDS011;9402;51.460;7.276;2022-07-22T01:36:24;9.30;;;4.20;;
18544;SDS011;9402;51.460;7.276;2022-07-22T01:38:31;9.40;;;3.90;;
18544;SDS011;9402;51.460;7.276;2022-07-22T01:40:34;4.97;;;3.87;;
18544;SDS011;9402;51.460;7.276;2022-07-22T01:42:36;7.70;;;4.73;;
18544;SDS011;9402;51.460;7.276;2022-07-22T01:44:38;7.73;;;4.53;;
18544;SDS011;9402;51.460;7.276;2022-07-22T01:46:41;10.07;;;4.80;;
18544;SDS011;9402;51.460;7.276;2022-07-22T01:48:43;8.07;;;4.70;;
18544;SDS011;9402;51.460;7.276;2022-07-22T01:50:46;4.67;;;3.87;;
18544;SDS011;9402;51.460;7.276;2022-07-22T01:52:49;5.30;;;4.17;;
18544;SDS011;9402;51.460;7.276;2022-07-22T01:54:52;17.10;;;5.97;;
18544;SDS011;9402;51.460;7.276;2022-07-22T01:56:54;6.03;;;3.80;;
18544;SDS011;9402;51.460;7.276;2022-07-22T01:58:56;6.77;;;4.50;;
18544;SDS011;9402;51.460;7.276;2022-07-22T02:00:59;8.67;;;5.23;;
18544;SDS011;9402;51.460;7.276;2022-07-22T02:03:01;8.53;;;5.57;;
18544;SDS011;9402;51.460;7.276;2022-07-22T02:05:04;15.43;;;5.83;;
18544;SDS011;9402;51.460;7.276;2022-07-22T02:07:07;9.37;;;5.17;;
18544;SDS011;9402;51.460;7.276;2022-07-22T02:09:11;7.83;;;4.73;;
18544;SDS011;9402;51.460;7.276;2022-07-22T02:11:14;8.00;;;4.60;;
18544;SDS011;9402;51.460;7.276;2022-07-22T02:13:17;9.40;;;5.33;;
18544;SDS011;9402;51.460;7.276;2022-07-22T02:15:20;8.93;;;6.07;;
18544;SDS011;9402;51.460;7.276;2022-07-22T02:17:22;7.93;;;4.97;;
18544;SDS011;9402;51.460;7.276;2022-07-22T02:19:25;15.50;;;6.93;;
18544;SDS011;9402;51.460;7.276;2022-07-22T02:21:28;11.43;;;6.03;;
18544;SDS011;9402;51.460;7.276;2022-07-22T02:23:30;9.13;;;5.30;;
18544;SDS011;9402;51.460;7.276;2022-07-22T02:25:34;10.33;;;4.93;;
18544;SDS011;9402;51.460;7.276;2022-07-22T02:27:36;8.53;;;5.17;;
18544;SDS011;9402;51.460;7.276;2022-07-22T02:29:39;11.13;;;6.43;;
18544;SDS011;9402;51.460;7.276;2022-07-22T02:31:41;8.33;;;5.73;;
18544;SDS011;9402;51.460;7.276;2022-07-22T02:33:43;13.63;;;5.50;;
18544;SDS011;9402;51.460;7.276;2022-07-22T02:35:46;10.70;;;5.33;;
18544;SDS011;9402;51.460;7.276;2022-07-22T02:37:48;7.20;;;5.20;;
18544;SDS011;9402;51.460;7.276;2022-07-22T02:39:50;7.97;;;5.20;;
18544;SDS011;9402;51.460;7.276;2022-07-22T02:41:54;9.57;;;4.90;;
18544;SDS011;9402;51.460;7.276;2022-07-22T02:43:56;11.53;;;4.80;;
18544;SDS011;9402;51.460;7.276;2022-07-22T02:46:02;13.13;;;5.20;;
18544;SDS011;9402;51.460;7.276;2022-07-22T02:48:04;10.23;;;5.40;;
18544;SDS011;9402;51.460;7.276;2022-07-22T02:50:07;6.67;;;4.77;;
18544;SDS011;9402;51.460;7.276;2022-07-22T02:52:09;6.43;;;4.37;;
18544;SDS011;9402;51.460;7.276;2022-07-22T02:54:12;18.77;;;4.77;;
18544;SDS011;9402;51.460;7.276;2022-07-22T02:56:14;11.33;;;5.27;;
18544;SDS011;9402;51.460;7.276;2022-07-22T02:58:18;6.00;;;4.70;;
18544;SDS011;9402;51.460;7.276;2022-07-22T03:00:20;7.30;;;4.80;;
18544;SDS011;9402;51.460;7.276;2022-07-22T03:02:22;9.17;;;4.23;;
18544;SDS011;9402;51.460;7.276;2022-07-22T03:04:24;6.20;;;4.40;;
18544;SDS011;9402;51.460;7.276;2022-07-22T03:06:27;6.90;;;3.43;;
18544;SDS011;9402;51.460;7.276;2022-07-22T03:08:29;8.43;;;4.53;;
18544;SDS011;9402;51.460;7.276;2022-07-22T03:10:31;15.47;;;3.50;;
18544;SDS011;9402;51.460;7.276;2022-07-22T03:12:34;4.47;;;2.70;;
18544;SDS011;9402;51.460;7.276;2022-07-22T03:14:38;5.10;;;3.20;;
18544;SDS011;9402;51.460;7.276;2022-07-22T03:16:41;3.97;;;2.00;;
18544;SDS011;9402;51.460;7.276;2022-07-22T03:18:43;8.03;;;2.40;;
18544;SDS011;9402;51.460;7.276;2022-07-22T03:20:45;5.03;;;2.10;;
18544;SDS011;9402;51.460;7.276;2022-07-22T03:22:48;4.27;;;2.97;;
18544;SDS011;9402;51.460;7.276;2022-07-22T03:24:50;2.90;;;2.27;;
18544;SDS011;9402;51.460;7.276;2022-07-22T03:26:52;3.97;;;2.40;;
18544;SDS011;9402;51.460;7.276;2022-07-22T03:28:54;14.20;;;3.23;;
18544;SDS011;9402;51.460;7.276;2022-07-22T03:30:58;6.93;;;2.93;;
18544;SDS011;9402;51.460;7.276;2022-07-22T03:33:00;5.00;;;2.57;;
18544;SDS011;9402;51.460;7.276;2022-07-22T03:35:03;7.63;;;3.00;;
18544;SDS011;9402;51.460;7.276;2022-07-22T03:37:06;10.33;;;3.10;;
18544;SDS011;9402;51.460;7.276;2022-07-22T03:39:08;15.30;;;2.13;;
18544;SDS011;9402;51.460;7.276;2022-07-22T03:41:10;4.73;;;2.20;;
18544;SDS011;9402;51.460;7.276;2022-07-22T03:43:13;4.60;;;2.50;;
18544;SDS011;9402;51.460;7.276;2022-07-22T03:45:15;5.87;;;2.70;;
18544;SDS011;9402;51.460;7.276;2022-07-22T03:47:19;6.40;;;2.30;;
18544;SDS011;9402;51.460;7.276;2022-07-22T03:49:22;6.57;;;2.70;;
18544;SDS011;9402;51.460;7.276;2022-07-22T03:51:25;7.53;;;2.90;;
18544;SDS011;9402;51.460;7.276;2022-07-22T03:53:27;5.17;;;2.93;;
18544;SDS011;9402;51.460;7.276;2022-07-22T03:55:29;5.13;;;3.63;;
18544;SDS011;9402;51.460;7.276;2022-07-22T03:57:32;4.67;;;3.47;;
18544;SDS011;9402;51.460;7.276;2022-07-22T03:59:34;5.63;;;3.50;;
18544;SDS011;9402;51.460;7.276;2022-07-22T04:01:36;8.50;;;3.93;;
18544;SDS011;9402;51.460;7.276;2022-07-22T04:03:40;4.30;;;3.23;;
18544;SDS011;9402;51.460;7.276;2022-07-22T04:05:42;8.00;;;3.00;;
18544;SDS011;9402;51.460;7.276;2022-07-22T04:07:45;9.67;;;2.97;;
18544;SDS011;9402;51.460;7.276;2022-07-22T04:09:47;9.20;;;3.30;;
18544;SDS011;9402;51.460;7.276;2022-07-22T04:11:50;4.53;;;3.60;;
18544;SDS011;9402;51.460;7.276;2022-07-22T04:13:53;10.17;;;2.93;;
18544;SDS011;9402;51.460;7.276;2022-07-22T04:15:55;6.10;;;3.07;;
18544;SDS011;9402;51.460;7.276;2022-07-22T04:17:57;4.60;;;2.77;;
18544;SDS011;9402;51.460;7.276;2022-07-22T04:20:01;12.93;;;4.50;;
18544;SDS011;9402;51.460;7.276;2022-07-22T04:22:04;6.47;;;3.40;;
18544;SDS011;9402;51.460;7.276;2022-07-22T04:24:07;4.60;;;3.17;;
18544;SDS011;9402;51.460;7.276;2022-07-22T04:26:09;7.90;;;3.30;;
18544;SDS011;9402;51.460;7.276;2022-07-22T04:28:11;6.90;;;3.47;;
18544;SDS011;9402;51.460;7.276;2022-07-22T04:30:14;10.40;;;3.10;;
18544;SDS011;9402;51.460;7.276;2022-07-22T04:32:16;11.43;;;4.50;;
18544;SDS011;9402;51.460;7.276;2022-07-22T04:34:18;4.10;;;3.03;;
18544;SDS011;9402;51.460;7.276;2022-07-22T04:36:22;6.20;;;3.37;;
18544;SDS011;9402;51.460;7.276;2022-07-22T04:38:24;8.13;;;3.47;;
18544;SDS011;9402;51.460;7.276;2022-07-22T04:40:27;5.13;;;3.03;;
18544;SDS011;9402;51.460;7.276;2022-07-22T04:42:29;10.67;;;3.70;;
18544;SDS011;9402;51.460;7.276;2022-07-22T04:44:31;10.70;;;3.73;;
18544;SDS011;9402;51.460;7.276;2022-07-22T04:46:34;8.33;;;3.43;;
18544;SDS011;9402;51.460;7.276;2022-07-22T04:48:36;4.17;;;3.03;;
18544;SDS011;9402;51.460;7.276;2022-07-22T04:50:38;5.00;;;2.67;;
18544;SDS011;9402;51.460;7.276;2022-07-22T04:52:42;5.83;;;3.03;;
18544;SDS011;9402;51.460;7.276;2022-07-22T04:54:44;4.87;;;2.70;;
18544;SDS011;9402;51.460;7.276;2022-07-22T04:56:46;6.97;;;3.30;;
18544;SDS011;9402;51.460;7.276;2022-07-22T04:58:49;9.23;;;2.77;;
18544;SDS011;9402;51.460;7.276;2022-07-22T05:00:51;7.70;;;3.50;;
18544;SDS011;9402;51.460;7.276;2022-07-22T05:02:54;6.10;;;3.43;;
18544;SDS011;9402;51.460;7.276;2022-07-22T05:04:56;5.13;;;3.70;;
18544;SDS011;9402;51.460;7.276;2022-07-22T05:06:59;6.10;;;3.80;;
18544;SDS011;9402;51.460;7.276;2022-07-22T05:09:04;5.60;;;3.40;;
18544;SDS011;9402;51.460;7.276;2022-07-22T05:11:07;6.70;;;2.60;;
18544;SDS011;9402;51.460;7.276;2022-07-22T05:13:09;5.73;;;3.17;;
18544;SDS011;9402;51.460;7.276;2022-07-22T05:15:14;5.03;;;3.10;;
18544;SDS011;9402;51.460;7.276;2022-07-22T05:17:16;6.10;;;3.10;;
18544;SDS011;9402;51.460;7.276;2022-07-22T05:19:19;6.23;;;3.07;;
18544;SDS011;9402;51.460;7.276;2022-07-22T05:21:21;8.67;;;3.70;;
18544;SDS011;9402;51.460;7.276;2022-07-22T05:23:23;6.13;;;4.90;;
18544;SDS011;9402;51.460;7.276;2022-07-22T05:25:27;9.90;;;3.40;;
18544;SDS011;9402;51.460;7.276;2022-07-22T05:27:29;8.40;;;3.17;;
18544;SDS011;9402;51.460;7.276;2022-07-22T05:29:32;10.23;;;3.43;;
18544;SDS011;9402;51.460;7.276;2022-07-22T05:31:34;5.73;;;3.37;;
18544;SDS011;9402;51.460;7.276;2022-07-22T05:33:36;8.63;;;3.17;;
18544;SDS011;9402;51.460;7.276;2022-07-22T05:35:38;9.07;;;3.33;;
18544;SDS011;9402;51.460;7.276;2022-07-22T05:37:41;7.20;;;3.10;;
18544;SDS011;9402;51.460;7.276;2022-07-22T05:39:43;10.10;;;3.07;;
18544;SDS011;9402;51.460;7.276;2022-07-22T05:41:47;3.73;;;2.00;;
18544;SDS011;9402;51.460;7.276;2022-07-22T05:43:49;6.73;;;2.70;;
18544;SDS011;9402;51.460;7.276;2022-07-22T05:45:52;7.23;;;2.80;;
18544;SDS011;9402;51.460;7.276;2022-07-22T05:47:54;5.83;;;2.47;;
18544;SDS011;9402;51.460;7.276;2022-07-22T05:49:56;4.03;;;2.40;;
18544;SDS011;9402;51.460;7.276;2022-07-22T05:51:58;8.37;;;2.53;;
18544;SDS011;9402;51.460;7.276;2022-07-22T05:54:01;3.60;;;2.83;;
18544;SDS011;9402;51.460;7.276;2022-07-22T05:56:04;7.23;;;2.57;;
18544;SDS011;9402;51.460;7.276;2022-07-22T05:58:08;8.20;;;3.43;;
18544;SDS011;9402;51.460;7.276;2022-07-22T06:00:11;4.77;;;2.80;;
18544;SDS011;9402;51.460;7.276;2022-07-22T06:02:13;12.23;;;3.00;;
18544;SDS011;9402;51.460;7.276;2022-07-22T06:04:16;3.97;;;2.33;;
18544;SDS011;9402;51.460;7.276;2022-07-22T06:06:18;6.00;;;2.33;;
18544;SDS011;9402;51.460;7.276;2022-07-22T06:08:21;6.57;;;2.90;;
18544;SDS011;9402;51.460;7.276;2022-07-22T06:10:23;11.10;;;2.43;;
18544;SDS011;9402;51.460;7.276;2022-07-22T06:12:26;2.00;;;1.50;;
18544;SDS011;9402;51.460;7.276;2022-07-22T06:14:29;4.30;;;1.93;;
18544;SDS011;9402;51.460;7.276;2022-07-22T06:16:31;4.90;;;1.97;;
18544;SDS011;9402;51.460;7.276;2022-07-22T06:18:35;4.63;;;2.03;;
18544;SDS011;9402;51.460;7.276;2022-07-22T06:20:37;2.03;;;1.93;;
18544;SDS011;9402;51.460;7.276;2022-07-22T06:22:39;5.00;;;1.63;;
18544;SDS011;9402;51.460;7.276;2022-07-22T06:24:42;5.00;;;1.87;;
18544;SDS011;9402;51.460;7.276;2022-07-22T06:26:44;5.70;;;2.00;;
18544;SDS011;9402;51.460;7.276;2022-07-22T06:28:46;4.13;;;1.80;;
18544;SDS011;9402;51.460;7.276;2022-07-22T06:30:50;5.27;;;2.03;;
18544;SDS011;9402;51.460;7.276;2022-07-22T06:32:52;3.20;;;1.67;;
18544;SDS011;9402;51.460;7.276;2022-07-22T06:34:55;3.10;;;1.70;;
18544;SDS011;9402;51.460;7.276;2022-07-22T06:36:57;2.70;;;1.33;;
18544;SDS011;9402;51.460;7.276;2022-07-22T06:38:59;3.10;;;2.00;;
18544;SDS011;9402;51.460;7.276;2022-07-22T06:41:02;4.50;;;2.13;;
18544;SDS011;9402;51.460;7.276;2022-07-22T06:43:04;14.70;;;1.67;;
18544;SDS011;9402;51.460;7.276;2022-07-22T06:45:07;3.83;;;1.97;;
18544;SDS011;9402;51.460;7.276;2022-07-22T06:47:11;2.90;;;2.07;;
18544;SDS011;9402;51.460;7.276;2022-07-22T06:49:13;8.67;;;3.23;;
18544;SDS011;9402;51.460;7.276;2022-07-22T06:51:15;4.07;;;1.70;;
18544;SDS011;9402;51.460;7.276;2022-07-22T06:53:18;6.43;;;2.07;;
18544;SDS011;9402;51.460;7.276;2022-07-22T06:55:20;3.10;;;2.07;;
18544;SDS011;9402;51.460;7.276;2022-07-22T06:57:22;3.90;;;1.60;;
18544;SDS011;9402;51.460;7.276;2022-07-22T06:59:24;3.93;;;1.50;;
18544;SDS011;9402;51.460;7.276;2022-07-22T07:01:27;8.73;;;1.70;;
18544;SDS011;9402;51.460;7.276;2022-07-22T07:03:30;2.40;;;1.40;;
18544;SDS011;9402;51.460;7.276;2022-07-22T07:05:33;4.63;;;2.17;;
18544;SDS011;9402;51.460;7.276;2022-07-22T07:07:35;11.73;;;1.70;;
18544;SDS011;9402;51.460;7.276;2022-07-22T07:09:37;3.93;;;1.60;;
18544;SDS011;9402;51.460;7.276;2022-07-22T07:11:40;2.60;;;1.50;;
18544;SDS011;9402;51.460;7.276;2022-07-22T07:13:42;8.67;;;2.40;;
18544;SDS011;9402;51.460;7.276;2022-07-22T07:15:44;3.33;;;2.23;;
18544;SDS011;9402;51.460;7.276;2022-07-22T07:17:47;4.60;;;2.93;;
18544;SDS011;9402;51.460;7.276;2022-07-22T07:19:50;5.30;;;3.63;;
18544;SDS011;9402;51.460;7.276;2022-07-22T07:21:53;3.77;;;2.83;;
18544;SDS011;9402;51.460;7.276;2022-07-22T07:23:55;5.63;;;4.37;;
18544;SDS011;9402;51.460;7.276;2022-07-22T07:25:58;6.77;;;3.70;;
18544;SDS011;9402;51.460;7.276;2022-07-22T07:28:00;7.20;;;3.60;;
18544;SDS011;9402;51.460;7.276;2022-07-22T07:30:03;7.00;;;3.00;;
18544;SDS011;9402;51.460;7.276;2022-07-22T07:32:06;7.27;;;3.40;;
18544;SDS011;9402;51.460;7.276;2022-07-22T07:34:09;9.37;;;2.10;;
18544;SDS011;9402;51.460;7.276;2022-07-22T07:36:12;12.73;;;2.33;;
18544;SDS011;9402;51.460;7.276;2022-07-22T07:38:15;6.23;;;1.87;;
18544;SDS011;9402;51.460;7.276;2022-07-22T07:40:17;3.73;;;1.50;;
18544;SDS011;9402;51.460;7.276;2022-07-22T07:42:19;2.50;;;2.30;;
18544;SDS011;9402;51.460;7.276;2022-07-22T07:44:22;10.53;;;1.60;;
18544;SDS011;9402;51.460;7.276;2022-07-22T07:46:24;3.60;;;1.93;;
18544;SDS011;9402;51.460;7.276;2022-07-22T07:48:26;6.33;;;2.90;;
18544;SDS011;9402;51.460;7.276;2022-07-22T07:50:29;3.20;;;2.37;;
18544;SDS011;9402;51.460;7.276;2022-07-22T07:52:33;7.17;;;3.63;;
18544;SDS011;9402;51.460;7.276;2022-07-22T07:54:39;3.63;;;2.23;;
18544;SDS011;9402;51.460;7.276;2022-07-22T07:56:41;5.37;;;3.50;;
18544;SDS011;9402;51.460;7.276;2022-07-22T07:58:44;4.33;;;3.07;;
18544;SDS011;9402;51.460;7.276;2022-07-22T08:00:46;6.47;;;3.67;;
18544;SDS011;9402;51.460;7.276;2022-07-22T08:02:48;7.40;;;3.97;;
18544;SDS011;9402;51.460;7.276;2022-07-22T08:04:51;5.50;;;4.70;;
18544;SDS011;9402;51.460;7.276;2022-07-22T08:06:53;4.63;;;3.90;;
18544;SDS011;9402;51.460;7.276;2022-07-22T08:08:57;6.83;;;5.50;;
18544;SDS011;9402;51.460;7.276;2022-07-22T08:11:00;6.80;;;5.80;;
18544;SDS011;9402;51.460;7.276;2022-07-22T08:13:03;9.80;;;6.50;;
18544;SDS011;9402;51.460;7.276;2022-07-22T08:15:06;8.13;;;6.27;;
18544;SDS011;9402;51.460;7.276;2022-07-22T08:17:09;8.53;;;5.47;;
18544;SDS011;9402;51.460;7.276;2022-07-22T08:19:11;10.60;;;5.90;;
18544;SDS011;9402;51.460;7.276;2022-07-22T08:21:13;10.10;;;5.80;;
18544;SDS011;9402;51.460;7.276;2022-07-22T08:23:16;8.30;;;4.77;;
18544;SDS011;9402;51.460;7.276;2022-07-22T08:25:20;7.90;;;7.10;;
18544;SDS011;9402;51.460;7.276;2022-07-22T08:27:22;12.33;;;5.57;;
18544;SDS011;9402;51.460;7.276;2022-07-22T08:29:25;10.43;;;5.60;;
18544;SDS011;9402;51.460;7.276;2022-07-22T08:31:27;6.20;;;5.10;;
18544;SDS011;9402;51.460;7.276;2022-07-22T08:33:31;7.73;;;5.80;;
18544;SDS011;9402;51.460;7.276;2022-07-22T08:35:35;10.40;;;6.27;;
18544;SDS011;9402;51.460;7.276;2022-07-22T08:37:37;6.33;;;5.53;;
18544;SDS011;9402;51.460;7.276;2022-07-22T08:39:40;11.20;;;5.60;;
18544;SDS011;9402;51.460;7.276;2022-07-22T08:41:43;6.90;;;4.80;;
18544;SDS011;9402;51.460;7.276;2022-07-22T08:43:45;6.17;;;4.60;;
18544;SDS011;9402;51.460;7.276;2022-07-22T08:45:49;10.00;;;5.97;;
18544;SDS011;9402;51.460;7.276;2022-07-22T08:47:52;8.90;;;6.30;;
18544;SDS011;9402;51.460;7.276;2022-07-22T08:49:54;10.13;;;6.87;;
18544;SDS011;9402;51.460;7.276;2022-07-22T08:51:56;9.43;;;6.97;;
18544;SDS011;9402;51.460;7.276;2022-07-22T08:53:59;8.00;;;6.17;;
18544;SDS011;9402;51.460;7.276;2022-07-22T08:56:01;8.40;;;5.70;;
18544;SDS011;9402;51.460;7.276;2022-07-22T08:58:05;10.03;;;6.93;;
18544;SDS011;9402;51.460;7.276;2022-07-22T09:00:08;12.10;;;6.97;;
18544;SDS011;9402;51.460;7.276;2022-07-22T09:02:12;10.87;;;6.30;;
18544;SDS011;9402;51.460;7.276;2022-07-22T09:04:14;8.53;;;6.60;;
18544;SDS011;9402;51.460;7.276;2022-07-22T09:06:17;7.70;;;6.50;;
18544;SDS011;9402;51.460;7.276;2022-07-22T09:08:20;19.30;;;8.07;;
18544;SDS011;9402;51.460;7.276;2022-07-22T09:10:23;9.90;;;7.47;;
18544;SDS011;9402;51.460;7.276;2022-07-22T09:12:30;10.60;;;7.20;;
18544;SDS011;9402;51.460;7.276;2022-07-22T09:14:45;12.93;;;7.10;;
18544;SDS011;9402;51.460;7.276;2022-07-22T09:16:48;9.40;;;6.63;;
18544;SDS011;9402;51.460;7.276;2022-07-22T09:18:51;7.73;;;6.60;;
18544;SDS011;9402;51.460;7.276;2022-07-22T09:20:57;8.43;;;6.43;;
18544;SDS011;9402;51.460;7.276;2022-07-22T09:23:00;17.33;;;7.37;;
18544;SDS011;9402;51.460;7.276;2022-07-22T09:25:19;13.00;;;7.40;;
18544;SDS011;9402;51.460;7.276;2022-07-22T09:27:27;15.50;;;6.50;;
18544;SDS011;9402;51.460;7.276;2022-07-22T09:29:29;10.50;;;7.03;;
18544;SDS011;9402;51.460;7.276;2022-07-22T09:31:34;9.23;;;7.87;;
18544;SDS011;9402;51.460;7.276;2022-07-22T09:33:37;8.57;;;7.20;;
18544;SDS011;9402;51.460;7.276;2022-07-22T09:35:45;10.40;;;7.37;;
18544;SDS011;9402;51.460;7.276;2022-07-22T09:37:49;10.50;;;7.77;;
18544;SDS011;9402;51.460;7.276;2022-07-22T09:39:52;11.83;;;8.03;;
18544;SDS011;9402;51.460;7.276;2022-07-22T09:41:57;10.20;;;7.83;;
18544;SDS011;9402;51.460;7.276;2022-07-22T09:46:34;10.50;;;6.23;;
18544;SDS011;9402;51.460;7.276;2022-07-22T09:48:38;9.43;;;6.80;;
18544;SDS011;9402;51.460;7.276;2022-07-22T09:50:43;10.67;;;6.27;;
18544;SDS011;9402;51.460;7.276;2022-07-22T09:52:47;17.50;;;7.67;;
18544;SDS011;9402;51.460;7.276;2022-07-22T09:54:51;11.00;;;6.90;;
18544;SDS011;9402;51.460;7.276;2022-07-22T09:56:55;9.33;;;5.23;;
18544;SDS011;9402;51.460;7.276;2022-07-22T09:58:58;17.07;;;6.83;;
18544;SDS011;9402;51.460;7.276;2022-07-22T10:01:02;13.20;;;7.10;;
18544;SDS011;9402;51.460;7.276;2022-07-22T10:03:07;10.80;;;7.07;;
18544;SDS011;9402;51.460;7.276;2022-07-22T10:05:12;17.00;;;7.60;;
18544;SDS011;9402;51.460;7.276;2022-07-22T10:07:16;9.00;;;7.07;;
18544;SDS011;9402;51.460;7.276;2022-07-22T10:09:18;9.47;;;6.90;;
18544;SDS011;9402;51.460;7.276;2022-07-22T10:11:22;11.10;;;7.17;;
18544;SDS011;9402;51.460;7.276;2022-07-22T10:13:25;10.50;;;7.07;;
18544;SDS011;9402;51.460;7.276;2022-07-22T10:15:28;9.67;;;6.67;;
18544;SDS011;9402;51.460;7.276;2022-07-22T10:17:31;13.00;;;7.30;;
18544;SDS011;9402;51.460;7.276;2022-07-22T10:19:37;10.10;;;7.30;;
18544;SDS011;9402;51.460;7.276;2022-07-22T10:21:39;12.77;;;7.90;;
18544;SDS011;9402;51.460;7.276;2022-07-22T10:26:13;12.03;;;8.37;;
18544;SDS011;9402;51.460;7.276;2022-07-22T10:28:20;14.73;;;8.10;;
18544;SDS011;9402;51.460;7.276;2022-07-22T10:30:24;10.80;;;7.40;;
18544;SDS011;9402;51.460;7.276;2022-07-22T10:32:28;10.40;;;7.03;;
18544;SDS011;9402;51.460;7.276;2022-07-22T10:34:30;11.43;;;8.03;;
18544;SDS011;9402;51.460;7.276;2022-07-22T10:36:34;15.53;;;8.70;;
18544;SDS011;9402;51.460;7.276;2022-07-22T10:38:37;11.83;;;8.43;;
18544;SDS011;9402;51.460;7.276;2022-07-22T10:40:47;13.17;;;6.93;;
18544;SDS011;9402;51.460;7.276;2022-07-22T10:43:08;13.37;;;8.47;;
18544;SDS011;9402;51.460;7.276;2022-07-22T10:45:11;15.53;;;9.10;;
18544;SDS011;9402;51.460;7.276;2022-07-22T10:47:13;13.17;;;8.33;;
18544;SDS011;9402;51.460;7.276;2022-07-22T10:49:16;14.53;;;8.03;;
18544;SDS011;9402;51.460;7.276;2022-07-22T10:51:20;15.17;;;7.67;;
18544;SDS011;9402;51.460;7.276;2022-07-22T10:53:38;12.90;;;7.70;;
18544;SDS011;9402;51.460;7.276;2022-07-22T10:55:57;18.07;;;8.17;;
18544;SDS011;9402;51.460;7.276;2022-07-22T11:00:44;11.37;;;7.20;;
18544;SDS011;9402;51.460;7.276;2022-07-22T11:02:46;18.10;;;8.27;;
18544;SDS011;9402;51.460;7.276;2022-07-22T11:04:48;17.23;;;9.67;;
18544;SDS011;9402;51.460;7.276;2022-07-22T11:06:51;13.80;;;7.37;;
18544;SDS011;9402;51.460;7.276;2022-07-22T11:08:56;13.23;;;8.57;;
18544;SDS011;9402;51.460;7.276;2022-07-22T11:11:01;20.13;;;9.43;;
18544;SDS011;9402;51.460;7.276;2022-07-22T11:13:03;18.67;;;8.60;;
18544;SDS011;9402;51.460;7.276;2022-07-22T11:15:05;13.97;;;7.90;;
18544;SDS011;9402;51.460;7.276;2022-07-22T11:17:09;14.77;;;8.63;;
18544;SDS011;9402;51.460;7.276;2022-07-22T11:19:13;16.40;;;9.40;;
18544;SDS011;9402;51.460;7.276;2022-07-22T11:21:20;16.10;;;9.40;;
18544;SDS011;9402;51.460;7.276;2022-07-22T11:23:25;15.13;;;7.93;;
18544;SDS011;9402;51.460;7.276;2022-07-22T11:25:29;11.67;;;7.63;;
18544;SDS011;9402;51.460;7.276;2022-07-22T11:27:31;16.17;;;9.20;;
18544;SDS011;9402;51.460;7.276;2022-07-22T11:29:34;14.27;;;8.53;;
18544;SDS011;9402;51.460;7.276;2022-07-22T11:31:37;15.23;;;8.20;;
18544;SDS011;9402;51.460;7.276;2022-07-22T11:33:40;11.30;;;7.17;;
18544;SDS011;9402;51.460;7.276;2022-07-22T11:38:04;14.77;;;8.67;;
18544;SDS011;9402;51.460;7.276;2022-07-22T11:40:09;17.80;;;9.00;;
18544;SDS011;9402;51.460;7.276;2022-07-22T11:42:13;16.63;;;7.90;;
18544;SDS011;9402;51.460;7.276;2022-07-22T11:44:17;17.93;;;8.87;;
18544;SDS011;9402;51.460;7.276;2022-07-22T11:46:20;14.27;;;8.57;;
18544;SDS011;9402;51.460;7.276;2022-07-22T11:48:23;16.67;;;7.57;;
18544;SDS011;9402;51.460;7.276;2022-07-22T11:50:29;16.00;;;8.67;;
18544;SDS011;9402;51.460;7.276;2022-07-22T11:52:32;14.77;;;7.77;;
18544;SDS011;9402;51.460;7.276;2022-07-22T11:54:34;21.73;;;8.40;;
18544;SDS011;9402;51.460;7.276;2022-07-22T11:56:37;13.90;;;7.87;;
18544;SDS011;9402;51.460;7.276;2022-07-22T11:58:41;19.03;;;9.20;;
18544;SDS011;9402;51.460;7.276;2022-07-22T12:00:44;16.97;;;10.27;;
18544;SDS011;9402;51.460;7.276;2022-07-22T12:02:47;20.13;;;9.30;;
18544;SDS011;9402;51.460;7.276;2022-07-22T12:04:49;20.50;;;9.97;;
18544;SDS011;9402;51.460;7.276;2022-07-22T12:06:52;24.60;;;10.20;;
18544;SDS011;9402;51.460;7.276;2022-07-22T12:08:55;17.90;;;9.10;;
18544;SDS011;9402;51.460;7.276;2022-07-22T12:11:04;14.07;;;8.70;;
18544;SDS011;9402;51.460;7.276;2022-07-22T12:13:06;18.13;;;8.50;;
18544;SDS011;9402;51.460;7.276;2022-07-22T12:15:13;22.40;;;9.40;;
18544;SDS011;9402;51.460;7.276;2022-07-22T12:17:16;17.60;;;10.10;;
18544;SDS011;9402;51.460;7.276;2022-07-22T12:19:19;20.97;;;10.23;;
18544;SDS011;9402;51.460;7.276;2022-07-22T12:21:21;19.83;;;9.63;;
18544;SDS011;9402;51.460;7.276;2022-07-22T12:23:25;17.40;;;8.90;;
18544;SDS011;9402;51.460;7.276;2022-07-22T12:25:27;17.37;;;8.90;;
18544;SDS011;9402;51.460;7.276;2022-07-22T12:27:30;19.53;;;9.77;;
18544;SDS011;9402;51.460;7.276;2022-07-22T12:29:41;19.13;;;9.43;;
18544;SDS011;9402;51.460;7.276;2022-07-22T12:31:46;21.50;;;8.83;;
18544;SDS011;9402;51.460;7.276;2022-07-22T12:33:50;16.83;;;9.33;;
18544;SDS011;9402;51.460;7.276;2022-07-22T12:36:00;14.83;;;7.73;;
18544;SDS011;9402;51.460;7.276;2022-07-22T12:38:05;18.60;;;9.57;;